Fjordprinsessen — LJVE — position and weather

sailwx.info

Track history (hours):
 
Tides and Currents Weather Stations Pressure Air Temp Water Temp Dewpoint Dewpoint Depression Visibility Wind Speed Wind Dir Waves Ship Positions

Fjordprinsessen

Last reported at 2017-Jan-20 15:33 UTC. Time now 2017-Jan-20 16:08 UTC.
Position N 67°25' E 014°08'.

Length 30 m; draft 2.5 m.

Type: High speed craft. MMSI: 259604000.

Date/timePositionNaut miles runAvg speedWind from/ knotsBaromVisibWave heightAir tempDewpointWater temp
2017-Jan-20 15:33N 67°25' E 014°08'9 9.4
2017-Jan-20 14:33N 67°17' E 014°22'1514.8
2017-Jan-20 13:32N 67°18' E 013°43'1311.7
2017-Jan-20 12:25N 67°23' E 014°15'7 8.1
2017-Jan-20 11:33N 67°17' E 014°22'0 0.0
2017-Jan-20 10:33N 67°17' E 014°22'0 0.0
2017-Jan-20 09:33N 67°17' E 014°22'0 0.0
2017-Jan-20 08:33N 67°17' E 014°22'0 0.0
2017-Jan-20 07:33N 67°17' E 014°22'0 0.0
2017-Jan-20 06:33N 67°17' E 014°22'1212.4
2017-Jan-20 05:34N 67°07' E 014°02'1212.3
2017-Jan-20 04:33N 67°17' E 014°22'0 0.0
2017-Jan-20 03:32N 67°17' E 014°22'0 0.0
2017-Jan-20 02:32N 67°17' E 014°22'0 0.0
2017-Jan-20 01:32N 67°17' E 014°22'0 0.0
2017-Jan-20 00:29N 67°17' E 014°22'0 0.0
2017-Jan-19 23:32N 67°17' E 014°22'0 0.0
2017-Jan-19 22:32N 67°17' E 014°22'0 0.0
2017-Jan-19 21:32N 67°17' E 014°22'0 0.0
2017-Jan-19 20:32N 67°17' E 014°22'0 0.0
2017-Jan-19 19:32N 67°17' E 014°22'0 0.0
2017-Jan-19 18:33N 67°17' E 014°22'0 0.0
2017-Jan-19 17:32N 67°17' E 014°22'0 0.0
2017-Jan-19 16:32N 67°17' E 014°22'0 0.0
2017-Jan-19 15:32N 67°17' E 014°22'0 0.0
2017-Jan-19 14:33N 67°17' E 014°22'0 0.0
2017-Jan-19 13:33N 67°17' E 014°22'0 0.0
2017-Jan-19 12:33N 67°17' E 014°22'0 0.0
2017-Jan-19 11:33N 67°17' E 014°22'0 0.0
2017-Jan-19 10:32N 67°17' E 014°22'0 0.0
2017-Jan-19 09:32N 67°17' E 014°22'0 0.0
2017-Jan-19 08:32N 67°17' E 014°22'0 0.0
2017-Jan-19 07:32N 67°17' E 014°22'0 0.0
2017-Jan-19 06:32N 67°17' E 014°22'0 0.0
2017-Jan-19 05:32N 67°17' E 014°22'0 0.0
2017-Jan-19 04:32N 67°17' E 014°22'0 0.0
2017-Jan-19 03:32N 67°17' E 014°22'0 0.0
2017-Jan-19 02:32N 67°17' E 014°22'0 0.0
2017-Jan-19 01:32N 67°17' E 014°22'0 0.0
2017-Jan-19 00:32N 67°17' E 014°22'0 0.0
2017-Jan-18 23:32N 67°17' E 014°22'0 0.0
2017-Jan-18 22:32N 67°17' E 014°22'0 0.0
2017-Jan-18 21:32N 67°17' E 014°22'0 0.0
2017-Jan-18 20:32N 67°17' E 014°22'0 0.0
2017-Jan-18 19:32N 67°17' E 014°22'0 0.0
2017-Jan-18 18:32N 67°17' E 014°22'0 0.0
2017-Jan-18 17:32N 67°17' E 014°22'0 0.0
2017-Jan-18 16:32N 67°17' E 014°22'0 0.0
2017-Jan-18 15:32N 67°17' E 014°22'0 0.0
2017-Jan-18 14:33N 67°17' E 014°22'0 0.0
2017-Jan-18 13:33N 67°17' E 014°22'0 0.0
2017-Jan-18 12:33N 67°17' E 014°22'0 0.0
2017-Jan-18 11:33N 67°17' E 014°22'0 0.0
2017-Jan-18 10:33N 67°17' E 014°22'0 0.0
2017-Jan-18 09:33N 67°17' E 014°22'0 0.3
2017-Jan-18 08:34N 67°17' E 014°22'1413.4
2017-Jan-18 07:33N 67°20' E 013°47'1110.9
2017-Jan-18 06:31N 67°23' E 014°15'2 2.5
2017-Jan-18 05:34N 67°23' E 014°08'1 0.1
2017-Jan-17 19:34N 67°24' E 014°10'9 8.6
2017-Jan-17 18:33N 67°17' E 014°22'0 0.0
2017-Jan-17 17:34N 67°17' E 014°22'1211.6
2017-Jan-17 16:34N 67°28' E 014°31'13 1.5
2017-Jan-17 07:33N 67°40' E 014°45'2524.8
2017-Jan-17 06:33N 67°17' E 014°22'9 9.2
2017-Jan-17 05:34N 67°24' E 014°06'5 4.0
2017-Jan-17 04:23N 67°24' E 013°54'0 0.0
2017-Jan-17 03:29N 67°24' E 013°54'0 0.0
2017-Jan-17 01:29N 67°24' E 013°54'4 0.6
2017-Jan-16 19:33N 67°22' E 014°02'10 9.6
2017-Jan-16 18:33N 67°17' E 014°22'0 0.0
2017-Jan-16 17:33N 67°17' E 014°22'6 6.1
2017-Jan-16 16:34N 67°22' E 014°13'3 3.0
2017-Jan-16 15:34N 67°24' E 014°08'9 9.1
2017-Jan-16 14:33N 67°17' E 014°22'0 0.0
2017-Jan-16 13:33N 67°17' E 014°22'0 0.0
2017-Jan-16 12:33N 67°17' E 014°22'0 0.0
2017-Jan-16 11:33N 67°17' E 014°22'1110.9
2017-Jan-16 10:33N 67°13' E 013°57'4 3.8
2017-Jan-16 09:34N 67°10' E 014°03'1110.6
2017-Jan-16 08:33N 67°17' E 014°22'0 0.0
2017-Jan-16 07:33N 67°17' E 014°22'0 0.0
2017-Jan-16 06:33N 67°17' E 014°22'1212.4
2017-Jan-16 05:33N 67°07' E 014°02'1212.4
2017-Jan-16 04:34N 67°17' E 014°22'0 0.0
2017-Jan-16 03:31N 67°17' E 014°22'0 0.0
2017-Jan-16 02:31N 67°17' E 014°22'0 0.0
2017-Jan-16 01:31N 67°17' E 014°22'0 0.0
2017-Jan-16 00:31N 67°17' E 014°22'0 0.0
2017-Jan-15 23:31N 67°17' E 014°22'0 0.0
2017-Jan-15 22:31N 67°17' E 014°22'0 0.0
2017-Jan-15 21:31N 67°17' E 014°22'3 3.6
2017-Jan-15 20:34N 67°15' E 014°15'1110.8
2017-Jan-15 19:34N 67°10' E 013°51'1414.2
2017-Jan-15 18:33N 67°17' E 014°22'1110.4
2017-Jan-15 17:28N 67°25' E 014°01'8 8.3
2017-Jan-15 16:33N 67°18' E 013°53'1111.3
2017-Jan-15 15:33N 67°17' E 014°22'0 0.0
2017-Jan-15 14:33N 67°17' E 014°22'0 0.0
2017-Jan-15 13:33N 67°17' E 014°22'0 0.0
2017-Jan-15 12:33N 67°17' E 014°22'0 0.0
2017-Jan-15 11:32N 67°17' E 014°22'0 0.0
2017-Jan-15 10:32N 67°17' E 014°22'0 0.0
2017-Jan-15 09:32N 67°17' E 014°22'0 0.0
2017-Jan-15 08:32N 67°17' E 014°22'0 0.0
2017-Jan-15 07:32N 67°17' E 014°22'0 0.0
2017-Jan-15 06:28N 67°17' E 014°22'0 0.0
2017-Jan-15 05:31N 67°17' E 014°22'0 0.0
2017-Jan-15 04:31N 67°17' E 014°22'0 0.0
2017-Jan-15 03:31N 67°17' E 014°22'0 0.0
2017-Jan-15 02:31N 67°17' E 014°22'0 0.0
2017-Jan-15 01:31N 67°17' E 014°22'0 0.0
2017-Jan-15 00:31N 67°17' E 014°22'0 0.0
2017-Jan-14 23:31N 67°17' E 014°22'0 0.0
2017-Jan-14 22:31N 67°17' E 014°22'0 0.0
2017-Jan-14 21:31N 67°17' E 014°22'0 0.0
2017-Jan-14 20:31N 67°17' E 014°22'0 0.0
2017-Jan-14 19:31N 67°17' E 014°22'0 0.0
2017-Jan-14 18:31N 67°17' E 014°22'0 0.0
2017-Jan-14 17:31N 67°17' E 014°22'0 0.0
2017-Jan-14 16:31N 67°17' E 014°22'0 0.0
2017-Jan-14 15:34N 67°17' E 014°22'0 0.0
2017-Jan-14 14:34N 67°17' E 014°22'0 0.0
2017-Jan-14 13:32N 67°17' E 014°22'0 0.0
2017-Jan-14 12:32N 67°17' E 014°22'0 0.0
2017-Jan-14 11:32N 67°17' E 014°22'0 0.0
2017-Jan-14 10:32N 67°17' E 014°22'0 0.0
2017-Jan-14 09:32N 67°17' E 014°22'0 0.0
2017-Jan-14 08:32N 67°17' E 014°22'0 0.0
2017-Jan-14 07:32N 67°17' E 014°22'0 0.0
2017-Jan-14 06:32N 67°17' E 014°22'0 0.0
2017-Jan-14 05:32N 67°17' E 014°22'0 0.0
2017-Jan-14 04:32N 67°17' E 014°22'0 0.0
2017-Jan-14 03:32N 67°17' E 014°22'0 0.0
2017-Jan-13 23:32N 67°17' E 014°22'1616.2
2017-Jan-13 22:33N 67°10' E 013°46'1514.8
2017-Jan-13 21:34N 67°17' E 014°20'3 3.0
2017-Jan-13 20:34N 67°20' E 014°19'5 4.8
2017-Jan-13 19:33N 67°24' E 014°13'8 7.7
2017-Jan-13 18:33N 67°17' E 014°22'0 0.0
2017-Jan-13 17:33N 67°17' E 014°22'1312.5
2017-Jan-13 16:30N 67°12' E 013°51'6 6.9
2017-Jan-13 15:33N 67°07' E 014°02'1211.5
2017-Jan-13 14:29N 67°17' E 014°22'0 0.0
2017-Jan-13 13:32N 67°17' E 014°22'0 0.0
2017-Jan-13 12:32N 67°17' E 014°22'0 0.0
2017-Jan-13 11:32N 67°17' E 014°22'0 0.0
2017-Jan-13 10:32N 67°17' E 014°22'0 0.0
2017-Jan-13 09:32N 67°17' E 014°22'0 0.0
2017-Jan-13 08:32N 67°17' E 014°22'0 0.0
2017-Jan-13 07:32N 67°17' E 014°22'0 0.0
2017-Jan-13 06:33N 67°17' E 014°22'1212.3
2017-Jan-13 05:34N 67°07' E 014°03'1212.3
2017-Jan-13 04:33N 67°17' E 014°22'0 0.0
2017-Jan-13 03:32N 67°17' E 014°22'0 0.0
2017-Jan-13 02:32N 67°17' E 014°22'0 0.0
2017-Jan-13 01:32N 67°17' E 014°22'0 0.0
2017-Jan-13 00:32N 67°17' E 014°22'0 0.0
2017-Jan-12 23:32N 67°17' E 014°22'0 0.0
2017-Jan-12 22:32N 67°17' E 014°22'0 0.0
2017-Jan-12 21:32N 67°17' E 014°22'1313.0
2017-Jan-12 20:33N 67°11' E 013°53'4 3.9
2017-Jan-12 19:33N 67°09' E 014°01'1111.3
2017-Jan-12 18:33N 67°17' E 014°22'0 0.1
2017-Jan-12 17:33N 67°17' E 014°22'7 6.9
2017-Jan-12 16:33N 67°23' E 014°15'1 0.7
2017-Jan-12 15:33N 67°24' E 014°13'8 7.6
2017-Jan-12 14:34N 67°17' E 014°22'1515.0
2017-Jan-12 13:34N 67°18' E 013°43'1313.1
2017-Jan-12 12:34N 67°23' E 014°15'7 6.9
2017-Jan-12 11:33N 67°17' E 014°24'1010.2
2017-Jan-12 10:34N 67°13' E 013°60'3 3.2
2017-Jan-12 09:34N 67°10' E 014°04'10 9.8
2017-Jan-12 08:34N 67°17' E 014°22'1313.3
2017-Jan-12 07:33N 67°22' E 013°49'10 9.6
2017-Jan-12 06:32N 67°23' E 014°15'3 3.0
2017-Jan-12 05:34N 67°24' E 014°07'4 0.4
2017-Jan-11 19:31N 67°26' E 013°59'1213.0
2017-Jan-11 18:33N 67°17' E 014°22'1 0.6
2017-Jan-11 17:34N 67°17' E 014°24'1614.1
2017-Jan-11 16:27N 67°18' E 013°43'1112.1
2017-Jan-11 15:33N 67°25' E 014°06'1010.0
2017-Jan-11 14:33N 67°17' E 014°22'0 0.0
2017-Jan-11 13:33N 67°17' E 014°22'0 0.0
2017-Jan-11 12:33N 67°17' E 014°22'0 0.0
2017-Jan-11 11:33N 67°17' E 014°22'0 0.0
2017-Jan-11 10:33N 67°17' E 014°22'0 0.0
2017-Jan-11 09:33N 67°17' E 014°22'2 2.4
2017-Jan-11 08:34N 67°19' E 014°20'1312.4
2017-Jan-11 07:32N 67°20' E 013°47'1111.3
2017-Jan-11 06:33N 67°23' E 014°15'3 3.0
2017-Jan-11 05:34N 67°24' E 014°07'4 0.4
2017-Jan-10 19:33N 67°25' E 013°56'1313.0
2017-Jan-10 18:33N 67°17' E 014°22'0 0.0
2017-Jan-10 17:33N 67°17' E 014°22'2 1.7
2017-Jan-10 16:34N 67°19' E 014°23'  
Track history (hours):
 
Tides and Currents Weather Stations Pressure Air Temp Water Temp Dewpoint Dewpoint Depression Visibility Wind Speed Wind Dir Waves Ship Positions

Fjordprinsessen

Last reported at 2017-Jan-20 15:33 UTC. Time now 2017-Jan-20 16:08 UTC.
Position N 67°25' E 014°08'.

Length 30 m; draft 2.5 m.

Type: High speed craft. MMSI: 259604000.

Date/timePositionNaut miles runAvg speedWind from/ knotsBaromVisibWave heightAir tempDewpointWater temp
2017-Jan-20 15:33N 67°25' E 014°08'9 9.4
2017-Jan-20 14:33N 67°17' E 014°22'1514.8
2017-Jan-20 13:32N 67°18' E 013°43'1311.7
2017-Jan-20 12:25N 67°23' E 014°15'7 8.1
2017-Jan-20 11:33N 67°17' E 014°22'0 0.0
2017-Jan-20 10:33N 67°17' E 014°22'0 0.0
2017-Jan-20 09:33N 67°17' E 014°22'0 0.0
2017-Jan-20 08:33N 67°17' E 014°22'0 0.0
2017-Jan-20 07:33N 67°17' E 014°22'0 0.0
2017-Jan-20 06:33N 67°17' E 014°22'1212.4
2017-Jan-20 05:34N 67°07' E 014°02'1212.3
2017-Jan-20 04:33N 67°17' E 014°22'0 0.0
2017-Jan-20 03:32N 67°17' E 014°22'0 0.0
2017-Jan-20 02:32N 67°17' E 014°22'0 0.0
2017-Jan-20 01:32N 67°17' E 014°22'0 0.0
2017-Jan-20 00:29N 67°17' E 014°22'0 0.0
2017-Jan-19 23:32N 67°17' E 014°22'0 0.0
2017-Jan-19 22:32N 67°17' E 014°22'0 0.0
2017-Jan-19 21:32N 67°17' E 014°22'0 0.0
2017-Jan-19 20:32N 67°17' E 014°22'0 0.0
2017-Jan-19 19:32N 67°17' E 014°22'0 0.0
2017-Jan-19 18:33N 67°17' E 014°22'0 0.0
2017-Jan-19 17:32N 67°17' E 014°22'0 0.0
2017-Jan-19 16:32N 67°17' E 014°22'0 0.0
2017-Jan-19 15:32N 67°17' E 014°22'0 0.0
2017-Jan-19 14:33N 67°17' E 014°22'0 0.0
2017-Jan-19 13:33N 67°17' E 014°22'0 0.0
2017-Jan-19 12:33N 67°17' E 014°22'0 0.0
2017-Jan-19 11:33N 67°17' E 014°22'0 0.0
2017-Jan-19 10:32N 67°17' E 014°22'0 0.0
2017-Jan-19 09:32N 67°17' E 014°22'0 0.0
2017-Jan-19 08:32N 67°17' E 014°22'0 0.0
2017-Jan-19 07:32N 67°17' E 014°22'0 0.0
2017-Jan-19 06:32N 67°17' E 014°22'0 0.0
2017-Jan-19 05:32N 67°17' E 014°22'0 0.0
2017-Jan-19 04:32N 67°17' E 014°22'0 0.0
2017-Jan-19 03:32N 67°17' E 014°22'0 0.0
2017-Jan-19 02:32N 67°17' E 014°22'0 0.0
2017-Jan-19 01:32N 67°17' E 014°22'0 0.0
2017-Jan-19 00:32N 67°17' E 014°22'0 0.0
2017-Jan-18 23:32N 67°17' E 014°22'0 0.0
2017-Jan-18 22:32N 67°17' E 014°22'0 0.0
2017-Jan-18 21:32N 67°17' E 014°22'0 0.0
2017-Jan-18 20:32N 67°17' E 014°22'0 0.0
2017-Jan-18 19:32N 67°17' E 014°22'0 0.0
2017-Jan-18 18:32N 67°17' E 014°22'0 0.0
2017-Jan-18 17:32N 67°17' E 014°22'0 0.0
2017-Jan-18 16:32N 67°17' E 014°22'0 0.0
2017-Jan-18 15:32N 67°17' E 014°22'0 0.0
2017-Jan-18 14:33N 67°17' E 014°22'0 0.0
2017-Jan-18 13:33N 67°17' E 014°22'0 0.0
2017-Jan-18 12:33N 67°17' E 014°22'0 0.0
2017-Jan-18 11:33N 67°17' E 014°22'0 0.0
2017-Jan-18 10:33N 67°17' E 014°22'0 0.0
2017-Jan-18 09:33N 67°17' E 014°22'0 0.3
2017-Jan-18 08:34N 67°17' E 014°22'1413.4
2017-Jan-18 07:33N 67°20' E 013°47'1110.9
2017-Jan-18 06:31N 67°23' E 014°15'2 2.5
2017-Jan-18 05:34N 67°23' E 014°08'1 0.1
2017-Jan-17 19:34N 67°24' E 014°10'9 8.6
2017-Jan-17 18:33N 67°17' E 014°22'0 0.0
2017-Jan-17 17:34N 67°17' E 014°22'1211.6
2017-Jan-17 16:34N 67°28' E 014°31'13 1.5
2017-Jan-17 07:33N 67°40' E 014°45'2524.8
2017-Jan-17 06:33N 67°17' E 014°22'9 9.2
2017-Jan-17 05:34N 67°24' E 014°06'5 4.0
2017-Jan-17 04:23N 67°24' E 013°54'0 0.0
2017-Jan-17 03:29N 67°24' E 013°54'0 0.0
2017-Jan-17 01:29N 67°24' E 013°54'4 0.6
2017-Jan-16 19:33N 67°22' E 014°02'10 9.6
2017-Jan-16 18:33N 67°17' E 014°22'0 0.0
2017-Jan-16 17:33N 67°17' E 014°22'6 6.1
2017-Jan-16 16:34N 67°22' E 014°13'3 3.0
2017-Jan-16 15:34N 67°24' E 014°08'9 9.1
2017-Jan-16 14:33N 67°17' E 014°22'0 0.0
2017-Jan-16 13:33N 67°17' E 014°22'0 0.0
2017-Jan-16 12:33N 67°17' E 014°22'0 0.0
2017-Jan-16 11:33N 67°17' E 014°22'1110.9
2017-Jan-16 10:33N 67°13' E 013°57'4 3.8
2017-Jan-16 09:34N 67°10' E 014°03'1110.6
2017-Jan-16 08:33N 67°17' E 014°22'0 0.0
2017-Jan-16 07:33N 67°17' E 014°22'0 0.0
2017-Jan-16 06:33N 67°17' E 014°22'1212.4
2017-Jan-16 05:33N 67°07' E 014°02'1212.4
2017-Jan-16 04:34N 67°17' E 014°22'0 0.0
2017-Jan-16 03:31N 67°17' E 014°22'0 0.0
2017-Jan-16 02:31N 67°17' E 014°22'0 0.0
2017-Jan-16 01:31N 67°17' E 014°22'0 0.0
2017-Jan-16 00:31N 67°17' E 014°22'0 0.0
2017-Jan-15 23:31N 67°17' E 014°22'0 0.0
2017-Jan-15 22:31N 67°17' E 014°22'0 0.0
2017-Jan-15 21:31N 67°17' E 014°22'3 3.6
2017-Jan-15 20:34N 67°15' E 014°15'1110.8
2017-Jan-15 19:34N 67°10' E 013°51'1414.2
2017-Jan-15 18:33N 67°17' E 014°22'1110.4
2017-Jan-15 17:28N 67°25' E 014°01'8 8.3
2017-Jan-15 16:33N 67°18' E 013°53'1111.3
2017-Jan-15 15:33N 67°17' E 014°22'0 0.0
2017-Jan-15 14:33N 67°17' E 014°22'0 0.0
2017-Jan-15 13:33N 67°17' E 014°22'0 0.0
2017-Jan-15 12:33N 67°17' E 014°22'0 0.0
2017-Jan-15 11:32N 67°17' E 014°22'0 0.0
2017-Jan-15 10:32N 67°17' E 014°22'0 0.0
2017-Jan-15 09:32N 67°17' E 014°22'0 0.0
2017-Jan-15 08:32N 67°17' E 014°22'0 0.0
2017-Jan-15 07:32N 67°17' E 014°22'0 0.0
2017-Jan-15 06:28N 67°17' E 014°22'0 0.0
2017-Jan-15 05:31N 67°17' E 014°22'0 0.0
2017-Jan-15 04:31N 67°17' E 014°22'0 0.0
2017-Jan-15 03:31N 67°17' E 014°22'0 0.0
2017-Jan-15 02:31N 67°17' E 014°22'0 0.0
2017-Jan-15 01:31N 67°17' E 014°22'0 0.0
2017-Jan-15 00:31N 67°17' E 014°22'0 0.0
2017-Jan-14 23:31N 67°17' E 014°22'0 0.0
2017-Jan-14 22:31N 67°17' E 014°22'0 0.0
2017-Jan-14 21:31N 67°17' E 014°22'0 0.0
2017-Jan-14 20:31N 67°17' E 014°22'0 0.0
2017-Jan-14 19:31N 67°17' E 014°22'0 0.0
2017-Jan-14 18:31N 67°17' E 014°22'0 0.0
2017-Jan-14 17:31N 67°17' E 014°22'0 0.0
2017-Jan-14 16:31N 67°17' E 014°22'0 0.0
2017-Jan-14 15:34N 67°17' E 014°22'0 0.0
2017-Jan-14 14:34N 67°17' E 014°22'0 0.0
2017-Jan-14 13:32N 67°17' E 014°22'0 0.0
2017-Jan-14 12:32N 67°17' E 014°22'0 0.0
2017-Jan-14 11:32N 67°17' E 014°22'0 0.0
2017-Jan-14 10:32N 67°17' E 014°22'0 0.0
2017-Jan-14 09:32N 67°17' E 014°22'0 0.0
2017-Jan-14 08:32N 67°17' E 014°22'0 0.0
2017-Jan-14 07:32N 67°17' E 014°22'0 0.0
2017-Jan-14 06:32N 67°17' E 014°22'0 0.0
2017-Jan-14 05:32N 67°17' E 014°22'0 0.0
2017-Jan-14 04:32N 67°17' E 014°22'0 0.0
2017-Jan-14 03:32N 67°17' E 014°22'0 0.0
2017-Jan-13 23:32N 67°17' E 014°22'1616.2
2017-Jan-13 22:33N 67°10' E 013°46'1514.8
2017-Jan-13 21:34N 67°17' E 014°20'3 3.0
2017-Jan-13 20:34N 67°20' E 014°19'5 4.8
2017-Jan-13 19:33N 67°24' E 014°13'8 7.7
2017-Jan-13 18:33N 67°17' E 014°22'0 0.0
2017-Jan-13 17:33N 67°17' E 014°22'1312.5
2017-Jan-13 16:30N 67°12' E 013°51'6 6.9
2017-Jan-13 15:33N 67°07' E 014°02'1211.5
2017-Jan-13 14:29N 67°17' E 014°22'0 0.0
2017-Jan-13 13:32N 67°17' E 014°22'0 0.0
2017-Jan-13 12:32N 67°17' E 014°22'0 0.0
2017-Jan-13 11:32N 67°17' E 014°22'0 0.0
2017-Jan-13 10:32N 67°17' E 014°22'0 0.0
2017-Jan-13 09:32N 67°17' E 014°22'0 0.0
2017-Jan-13 08:32N 67°17' E 014°22'0 0.0
2017-Jan-13 07:32N 67°17' E 014°22'0 0.0
2017-Jan-13 06:33N 67°17' E 014°22'1212.3
2017-Jan-13 05:34N 67°07' E 014°03'1212.3
2017-Jan-13 04:33N 67°17' E 014°22'0 0.0
2017-Jan-13 03:32N 67°17' E 014°22'0 0.0
2017-Jan-13 02:32N 67°17' E 014°22'0 0.0
2017-Jan-13 01:32N 67°17' E 014°22'0 0.0
2017-Jan-13 00:32N 67°17' E 014°22'0 0.0
2017-Jan-12 23:32N 67°17' E 014°22'0 0.0
2017-Jan-12 22:32N 67°17' E 014°22'0 0.0
2017-Jan-12 21:32N 67°17' E 014°22'1313.0
2017-Jan-12 20:33N 67°11' E 013°53'4 3.9
2017-Jan-12 19:33N 67°09' E 014°01'1111.3
2017-Jan-12 18:33N 67°17' E 014°22'0 0.1
2017-Jan-12 17:33N 67°17' E 014°22'7 6.9
2017-Jan-12 16:33N 67°23' E 014°15'1 0.7
2017-Jan-12 15:33N 67°24' E 014°13'8 7.6
2017-Jan-12 14:34N 67°17' E 014°22'1515.0
2017-Jan-12 13:34N 67°18' E 013°43'1313.1
2017-Jan-12 12:34N 67°23' E 014°15'7 6.9
2017-Jan-12 11:33N 67°17' E 014°24'1010.2
2017-Jan-12 10:34N 67°13' E 013°60'3 3.2
2017-Jan-12 09:34N 67°10' E 014°04'10 9.8
2017-Jan-12 08:34N 67°17' E 014°22'1313.3
2017-Jan-12 07:33N 67°22' E 013°49'10 9.6
2017-Jan-12 06:32N 67°23' E 014°15'3 3.0
2017-Jan-12 05:34N 67°24' E 014°07'4 0.4
2017-Jan-11 19:31N 67°26' E 013°59'1213.0
2017-Jan-11 18:33N 67°17' E 014°22'1 0.6
2017-Jan-11 17:34N 67°17' E 014°24'1614.1
2017-Jan-11 16:27N 67°18' E 013°43'1112.1
2017-Jan-11 15:33N 67°25' E 014°06'1010.0
2017-Jan-11 14:33N 67°17' E 014°22'0 0.0
2017-Jan-11 13:33N 67°17' E 014°22'0 0.0
2017-Jan-11 12:33N 67°17' E 014°22'0 0.0
2017-Jan-11 11:33N 67°17' E 014°22'0 0.0
2017-Jan-11 10:33N 67°17' E 014°22'0 0.0
2017-Jan-11 09:33N 67°17' E 014°22'2 2.4
2017-Jan-11 08:34N 67°19' E 014°20'1312.4
2017-Jan-11 07:32N 67°20' E 013°47'1111.3
2017-Jan-11 06:33N 67°23' E 014°15'3 3.0
2017-Jan-11 05:34N 67°24' E 014°07'4 0.4
2017-Jan-10 19:33N 67°25' E 013°56'1313.0
2017-Jan-10 18:33N 67°17' E 014°22'0 0.0
2017-Jan-10 17:33N 67°17' E 014°22'2 1.7
2017-Jan-10 16:34N 67°19' E 014°23'  

Dump ship's entire track history